Time;durP1;ratioP1;P1;durP2;ratioP2;P2;SDS_P1;SDS_P2;PMS_P1;PMS_P2;Temp;Humidity;BMP_temperature;BMP_pressure;BME280_temperature;BME280_humidity;BME280_pressure;Samples;Min_cycle;Max_cycle;Signal;HPM_P1;HPM_P2
2023/01/15 00:01:58;;;;;;;0.70;0.50;;;;;;;;;;5091303;28;20452;-74
2023/01/15 00:04:26;;;;;;;1.43;0.50;;;;;;;;;;5090569;28;20990;-74
2023/01/15 00:06:54;;;;;;;1.00;0.70;;;;;;;;;;5091554;28;20457;-75
2023/01/15 00:09:21;;;;;;;0.87;0.77;;;;;;;;;;5090917;28;20509;-75
2023/01/15 00:11:48;;;;;;;0.70;0.50;;;;;;;;;;5090590;28;20955;-74
2023/01/15 00:14:15;;;;;;;0.80;0.50;;;;;;;;;;5090037;28;20476;-74
2023/01/15 00:16:44;;;;;;;0.80;0.60;;;;;;;;;;5090770;28;20451;-74
2023/01/15 00:19:11;;;;;;;0.70;0.50;;;;;;;;;;5090602;28;20452;-73
2023/01/15 00:21:41;;;;;;;1.07;0.50;;;;;;;;;;5090855;28;20497;-73
2023/01/15 00:29:38;;;;;;;0.70;0.50;;;;;;;;;;5090764;28;20446;-74
2023/01/15 00:32:07;;;;;;;0.70;0.50;;;;;;;;;;5090621;28;20452;-71
2023/01/15 00:34:34;;;;;;;1.20;0.50;;;;;;;;;;5089661;28;20456;-74
2023/01/15 00:37:03;;;;;;;1.57;0.63;;;;;;;;;;5091112;28;20208;-74
2023/01/15 00:39:30;;;;;;;1.00;0.70;;;;;;;;;;5090587;28;20786;-74
2023/01/15 00:41:57;;;;;;;1.33;0.67;;;;;;;;;;5090796;28;20448;-74
2023/01/15 00:44:24;;;;;;;0.80;0.53;;;;;;;;;;5089657;28;20483;-74
2023/01/15 00:46:52;;;;;;;0.80;0.57;;;;;;;;;;5091172;28;20873;-74
2023/01/15 00:49:19;;;;;;;0.90;0.60;;;;;;;;;;5090344;28;20448;-75
2023/01/15 00:51:47;;;;;;;0.80;0.50;;;;;;;;;;5090941;28;20459;-74
2023/01/15 00:54:15;;;;;;;1.00;0.50;;;;;;;;;;5089783;28;20455;-74
2023/01/15 00:56:42;;;;;;;0.90;0.57;;;;;;;;;;5090317;28;21207;-74
2023/01/15 00:59:09;;;;;;;0.60;0.40;;;;;;;;;;5095440;28;20455;-75
2023/01/15 01:01:37;;;;;;;0.80;0.60;;;;;;;;;;5097458;28;20456;-74
2023/01/15 01:04:04;;;;;;;0.70;0.40;;;;;;;;;;5097194;28;20441;-74
2023/01/15 01:06:32;;;;;;;0.90;0.53;;;;;;;;;;5097688;28;20444;-75
2023/01/15 01:08:59;;;;;;;0.80;0.50;;;;;;;;;;5097196;28;20454;-74
2023/01/15 01:11:31;;;;;;;0.70;0.40;;;;;;;;;;5096688;28;20469;-74
2023/01/15 01:13:59;;;;;;;0.80;0.50;;;;;;;;;;5097006;28;20531;-74
2023/01/15 01:16:29;;;;;;;1.00;0.50;;;;;;;;;;5096829;28;20570;-74
2023/01/15 01:18:56;;;;;;;0.73;0.50;;;;;;;;;;5097157;28;20476;-74
2023/01/15 01:21:23;;;;;;;0.70;0.50;;;;;;;;;;5097000;28;20448;-74
2023/01/15 01:23:50;;;;;;;0.77;0.47;;;;;;;;;;5097002;28;20548;-75
2023/01/15 01:26:17;;;;;;;0.80;0.50;;;;;;;;;;5096493;28;20467;-74
2023/01/15 01:28:48;;;;;;;0.80;0.73;;;;;;;;;;5097346;28;20783;-74
2023/01/15 01:31:15;;;;;;;0.80;0.50;;;;;;;;;;5096449;28;20947;-74
2023/01/15 01:33:43;;;;;;;0.80;0.60;;;;;;;;;;5096930;28;20456;-74
2023/01/15 01:36:10;;;;;;;0.77;0.50;;;;;;;;;;5096254;28;20483;-74
2023/01/15 01:38:37;;;;;;;0.80;0.50;;;;;;;;;;5096954;28;20444;-74
2023/01/15 01:41:04;;;;;;;1.00;0.50;;;;;;;;;;5097063;28;20452;-74
2023/01/15 01:43:32;;;;;;;1.27;0.60;;;;;;;;;;5096974;28;20494;-74
2023/01/15 01:46:00;;;;;;;1.97;0.70;;;;;;;;;;5096821;28;20448;-74
2023/01/15 01:48:29;;;;;;;0.70;0.40;;;;;;;;;;5096686;28;20455;-74
2023/01/15 01:50:58;;;;;;;2.20;0.50;;;;;;;;;;5096797;28;20515;-74
2023/01/15 01:53:28;;;;;;;0.60;0.43;;;;;;;;;;5096189;28;20850;-74
2023/01/15 01:55:56;;;;;;;0.80;0.47;;;;;;;;;;5097099;28;20885;-74
2023/01/15 01:58:25;;;;;;;0.90;0.50;;;;;;;;;;5096595;28;20471;-74
2023/01/15 02:00:53;;;;;;;0.70;0.40;;;;;;;;;;5096981;28;20440;-75
2023/01/15 02:03:23;;;;;;;1.23;0.60;;;;;;;;;;5096056;28;20444;-74
2023/01/15 02:05:52;;;;;;;0.70;0.50;;;;;;;;;;5097070;28;20485;-74
2023/01/15 02:08:20;;;;;;;0.80;0.60;;;;;;;;;;5096377;28;20456;-74
2023/01/15 02:10:49;;;;;;;1.07;0.57;;;;;;;;;;5093046;28;20453;-74
2023/01/15 02:13:19;;;;;;;0.80;0.47;;;;;;;;;;5092204;28;20460;-75
2023/01/15 02:15:48;;;;;;;0.80;0.50;;;;;;;;;;5093675;28;20484;-74
2023/01/15 02:18:18;;;;;;;1.00;0.47;;;;;;;;;;5093001;28;20451;-74
2023/01/15 02:20:48;;;;;;;1.10;0.60;;;;;;;;;;5093678;28;20447;-74
2023/01/15 02:23:33;;;;;;;0.60;0.40;;;;;;;;;;5092739;28;20474;-75
2023/01/15 02:26:11;;;;;;;0.70;0.50;;;;;;;;;;5093776;28;20444;-74
2023/01/15 02:28:41;;;;;;;1.73;0.50;;;;;;;;;;5079933;28;20447;-74
2023/01/15 02:31:10;;;;;;;2.10;0.63;;;;;;;;;;5092911;28;20467;-74
2023/01/15 02:33:39;;;;;;;0.70;0.60;;;;;;;;;;5093061;28;20448;-74
2023/01/15 02:36:08;;;;;;;0.70;0.50;;;;;;;;;;5092387;28;20480;-72
2023/01/15 02:38:37;;;;;;;0.73;0.47;;;;;;;;;;5093474;28;20476;-74
2023/01/15 02:41:06;;;;;;;0.90;0.43;;;;;;;;;;5093147;28;20456;-74
2023/01/15 02:43:35;;;;;;;0.90;0.50;;;;;;;;;;5092395;28;20567;-74
2023/01/15 02:46:05;;;;;;;0.60;0.40;;;;;;;;;;5093020;28;20459;-75
2023/01/15 02:48:34;;;;;;;0.70;0.40;;;;;;;;;;5093308;28;20486;-74
2023/01/15 02:51:03;;;;;;;1.47;0.50;;;;;;;;;;5093089;28;20441;-74
2023/01/15 02:53:31;;;;;;;0.80;0.50;;;;;;;;;;5092113;28;20452;-74
2023/01/15 02:56:00;;;;;;;0.70;0.40;;;;;;;;;;5092613;28;20487;-74
2023/01/15 02:58:31;;;;;;;0.63;0.40;;;;;;;;;;5092663;28;20460;-74
2023/01/15 03:00:58;;;;;;;0.60;0.40;;;;;;;;;;5092324;28;20923;-74
2023/01/15 03:03:32;;;;;;;0.77;0.40;;;;;;;;;;5091561;28;20476;-74
2023/01/15 03:06:01;;;;;;;1.03;0.47;;;;;;;;;;5078824;28;20452;-74
2023/01/15 03:08:28;;;;;;;1.37;0.87;;;;;;;;;;5091793;28;20444;-74
2023/01/15 03:11:01;;;;;;;0.80;0.50;;;;;;;;;;5092071;28;20456;-74
2023/01/15 03:13:32;;;;;;;0.80;0.50;;;;;;;;;;5090638;28;20451;-74
2023/01/15 03:18:53;;;;;;;0.70;0.40;;;;;;;;;;5092386;28;20424;-74
2023/01/15 03:21:23;;;;;;;0.80;0.43;;;;;;;;;;5092001;28;20444;-74
2023/01/15 03:23:53;;;;;;;1.00;0.60;;;;;;;;;;5079194;28;20459;-74
2023/01/15 03:26:20;;;;;;;0.87;0.50;;;;;;;;;;5091470;28;20444;-74
2023/01/15 03:28:48;;;;;;;0.90;0.50;;;;;;;;;;5092405;28;20532;-74
2023/01/15 03:31:15;;;;;;;0.67;0.47;;;;;;;;;;5091744;28;20449;-74
2023/01/15 03:33:42;;;;;;;0.60;0.40;;;;;;;;;;5091855;28;20462;-74
2023/01/15 03:36:11;;;;;;;0.93;0.50;;;;;;;;;;5091127;28;20477;-74
2023/01/15 03:38:39;;;;;;;1.00;0.50;;;;;;;;;;5092284;28;20452;-74
2023/01/15 03:41:14;;;;;;;0.80;0.50;;;;;;;;;;5091145;28;20451;-73
2023/01/15 03:43:47;;;;;;;0.80;0.60;;;;;;;;;;5091652;28;20498;-74
2023/01/15 03:46:24;;;;;;;0.60;0.40;;;;;;;;;;5091074;28;20555;-74
2023/01/15 03:48:55;;;;;;;0.60;0.47;;;;;;;;;;5092090;28;20946;-75
2023/01/15 03:51:26;;;;;;;0.70;0.40;;;;;;;;;;5077952;28;20445;-74
2023/01/15 03:53:55;;;;;;;0.87;0.50;;;;;;;;;;5091172;28;20449;-74
2023/01/15 03:56:25;;;;;;;0.70;0.40;;;;;;;;;;5091730;28;20452;-74
2023/01/15 03:58:54;;;;;;;1.23;0.87;;;;;;;;;;5092688;28;20558;-74
2023/01/15 04:01:25;;;;;;;0.93;0.53;;;;;;;;;;5092448;28;20459;-74
2023/01/15 04:03:53;;;;;;;0.70;0.40;;;;;;;;;;5092998;28;20451;-74
2023/01/15 04:06:20;;;;;;;0.60;0.40;;;;;;;;;;5095078;28;20449;-74
2023/01/15 04:08:49;;;;;;;0.60;0.40;;;;;;;;;;5096776;28;20447;-74
2023/01/15 04:11:23;;;;;;;0.90;0.40;;;;;;;;;;5096396;28;20916;-74
2023/01/15 04:13:50;;;;;;;0.60;0.40;;;10.80;12.40;;;;;;5097178;28;20453;-74
2023/01/15 04:16:19;;;;;;;0.70;0.40;;;12.60;99.90;;;;;;5098496;28;20539;-74
2023/01/15 04:18:46;;;;;;;1.00;0.60;;;12.50;99.90;;;;;;5102208;28;20449;-74
2023/01/15 04:21:13;;;;;;;0.87;0.43;;;12.50;99.90;;;;;;5102105;28;20480;-74
2023/01/15 04:23:39;;;;;;;0.67;0.40;;;12.60;99.90;;;;;;5103064;28;20445;-74
2023/01/15 04:26:08;;;;;;;0.60;0.40;;;12.50;99.90;;;;;;5103052;28;20449;-73
2023/01/15 04:28:34;;;;;;;0.83;0.50;;;12.60;99.90;;;;;;5103198;28;20483;-74
2023/01/15 04:31:01;;;;;;;0.70;0.47;;;12.50;99.90;;;;;;5093266;28;20459;-74
2023/01/15 04:33:28;;;;;;;0.60;0.50;;;12.40;1.00;;;;;;5090974;28;20977;-74
2023/01/15 04:35:55;;;;;;;0.60;0.40;;;12.40;1.00;;;;;;5092166;28;20495;-74
2023/01/15 04:38:21;;;;;;;0.70;0.40;;;12.40;1.00;;;;;;5091068;28;20452;-74
2023/01/15 04:46:23;;;;;;;0.70;0.40;;;12.30;99.90;;;;;;5090665;28;20942;-74
2023/01/15 04:48:51;;;;;;;0.73;0.40;;;;;;;;;;5091178;28;20441;-74
2023/01/15 04:51:18;;;;;;;0.60;0.40;;;;;;;;;;5090175;28;20444;-74
2023/01/15 04:53:45;;;;;;;0.60;0.40;;;;;;;;;;5090679;28;20456;-74
2023/01/15 04:56:12;;;;;;;0.60;0.40;;;;;;;;;;5090143;28;20484;-74
2023/01/15 04:58:40;;;;;;;1.10;0.40;;;;;;;;;;5090967;28;20799;-74
2023/01/15 05:01:11;;;;;;;0.60;0.40;;;;;;;;;;5077068;28;20441;-74
2023/01/15 05:03:38;;;;;;;0.60;0.40;;;;;;;;;;5090366;28;20457;-74
2023/01/15 05:06:06;;;;;;;0.70;0.40;;;;;;;;;;5090790;28;20467;-72
2023/01/15 05:08:33;;;;;;;0.67;0.40;;;;;;;;;;5090935;28;20544;-74
2023/01/15 05:11:02;;;;;;;0.70;0.40;;;;;;;;;;5090896;28;20453;-74
2023/01/15 05:13:31;;;;;;;0.60;0.40;;;;;;;;;;5090013;28;20546;-74
2023/01/15 05:16:07;;;;;;;0.60;0.40;;;;;;;;;;5090442;28;21066;-74
2023/01/15 05:18:34;;;;;;;0.70;0.40;;;;;;;;;;5090582;28;20947;-74
2023/01/15 05:21:01;;;;;;;0.67;0.43;;;;;;;;;;5090894;28;20451;-74
2023/01/15 05:23:28;;;;;;;0.60;0.40;;;;;;;;;;5089426;28;20441;-74
2023/01/15 05:25:55;;;;;;;0.60;0.40;;;;;;;;;;5090708;28;20463;-74
2023/01/15 05:28:22;;;;;;;0.60;0.30;;;;;;;;;;5089944;28;20449;-74
2023/01/15 05:30:50;;;;;;;0.60;0.40;;;;;;;;;;5090681;28;20451;-74
2023/01/15 05:33:18;;;;;;;1.63;0.40;;;12.30;99.90;;;;;;5089138;28;20448;-73
2023/01/15 05:35:44;;;;;;;0.70;0.40;;;10.60;98.80;;;;;;5090384;28;20451;-73
2023/01/15 05:38:11;;;;;;;0.60;0.40;;;;;;;;;;5089662;28;20456;-74
2023/01/15 05:40:38;;;;;;;0.60;0.40;;;10.00;99.90;;;;;;5090243;28;20799;-74
2023/01/15 05:43:05;;;;;;;0.77;0.40;;;9.50;99.90;;;;;;5089146;28;20487;-68
2023/01/15 05:45:35;;;;;;;0.60;0.40;;;;;;;;;;5092245;28;20440;-75
2023/01/15 05:48:02;;;;;;;0.60;0.30;;;;;;;;;;5094355;28;20566;-76
2023/01/15 05:50:31;;;;;;;0.60;0.40;;;;;;;;;;5093413;28;20464;-76
2023/01/15 05:52:58;;;;;;;0.60;0.40;;;;;;;;;;5093892;28;20539;-76
2023/01/15 05:55:25;;;;;;;0.87;0.50;;;;;;;;;;5093190;28;21034;-75
2023/01/15 05:57:52;;;;;;;0.70;0.50;;;;;;;;;;5080422;28;20495;-77
2023/01/15 06:00:20;;;;;;;0.67;0.40;;;;;;;;;;5093602;28;20444;-76
2023/01/15 06:02:49;;;;;;;0.90;0.50;;;;;;;;;;5093985;28;20456;-75
2023/01/15 06:05:18;;;;;;;0.70;0.40;;;;;;;;;;5093400;28;20451;-77
2023/01/15 06:07:48;;;;;;;0.70;0.40;;;;;;;;;;5094397;28;20455;-77
2023/01/15 06:10:16;;;;;;;0.60;0.40;;;;;;;;;;5093325;28;20452;-77
2023/01/15 06:12:43;;;;;;;0.70;0.40;;;;;;;;;;5093781;28;20482;-77
2023/01/15 06:15:11;;;;;;;0.60;0.40;;;;;;;;;;5093376;28;20451;-76
2023/01/15 06:17:38;;;;;;;0.70;0.40;;;;;;;;;;5093844;28;20484;-76
2023/01/15 06:20:06;;;;;;;0.60;0.40;;;;;;;;;;5093765;28;20460;-69
2023/01/15 06:22:33;;;;;;;0.70;0.40;;;;;;;;;;5093967;28;20457;-76
2023/01/15 06:25:02;;;;;;;0.60;0.40;;;;;;;;;;5093787;28;20444;-76
2023/01/15 06:27:29;;;;;;;0.70;0.40;;;;;;;;;;5093206;28;20525;-76
2023/01/15 06:29:57;;;;;;;0.60;0.40;;;;;;;;;;5093859;28;20454;-75
2023/01/15 06:32:25;;;;;;;0.70;0.40;;;;;;;;;;5093161;28;20443;-75
2023/01/15 06:34:52;;;;;;;0.70;0.40;;;;;;;;;;5093604;28;20451;-75
2023/01/15 06:37:19;;;;;;;0.60;0.40;;;;;;;;;;5093208;28;20506;-76
2023/01/15 06:39:46;;;;;;;0.70;0.40;;;;;;;;;;5093628;28;20456;-76
2023/01/15 06:47:45;;;;;;;0.70;0.40;;;;;;;;;;5093295;28;20533;-76
2023/01/15 06:50:13;;;;;;;1.37;0.40;;;;;;;;;;5092766;28;20463;-76
2023/01/15 06:52:40;;;;;;;0.60;0.40;;;;;;;;;;5093093;28;20440;-76
2023/01/15 06:55:08;;;;;;;0.63;0.40;;;;;;;;;;5092874;28;20452;-75
2023/01/15 06:57:38;;;;;;;0.60;0.37;;;;;;;;;;5092793;28;20486;-76
2023/01/15 07:00:06;;;;;;;0.70;0.40;;;;;;;;;;5093281;28;20595;-70
2023/01/15 07:02:33;;;;;;;4.03;0.70;;;;;;;;;;5092880;28;20450;-77
2023/01/15 07:05:00;;;;;;;0.70;0.50;;;;;;;;;;5093386;28;20446;-77
2023/01/15 07:07:28;;;;;;;1.07;0.40;;;;;;;;;;5092679;28;20450;-77
2023/01/15 07:09:55;;;;;;;0.60;0.40;;;;;;;;;;5093191;28;20453;-76
2023/01/15 07:12:23;;;;;;;0.70;0.40;;;;;;;;;;5092029;28;20444;-76
2023/01/15 07:14:52;;;;;;;0.70;0.40;;;;;;;;;;5092772;28;20455;-76
2023/01/15 07:17:19;;;;;;;0.70;0.50;;;;;;;;;;5092350;28;20572;-76
2023/01/15 07:19:47;;;;;;;0.60;0.40;;;;;;;;;;5093001;28;20460;-77
2023/01/15 07:22:14;;;;;;;0.60;0.40;;;;;;;;;;5078641;28;20458;-74
2023/01/15 07:24:42;;;;;;;0.70;0.60;;;;;;;;;;5092843;28;20799;-76
2023/01/15 07:27:09;;;;;;;1.03;0.40;;;;;;;;;;5092370;28;20445;-76
2023/01/15 07:29:36;;;;;;;0.70;0.40;;;;;;;;;;5092760;28;20463;-77
2023/01/15 07:32:05;;;;;;;0.70;0.40;;;;;;;;;;5092712;28;20477;-76
2023/01/15 07:34:32;;;;;;;0.70;0.40;;;;;;;;;;5092276;28;20448;-76
2023/01/15 07:36:59;;;;;;;0.70;0.50;;;;;;;;;;5092639;28;20481;-76
2023/01/15 07:39:27;;;;;;;0.60;0.40;;;;;;;;;;5091643;28;20450;-76
2023/01/15 07:50:19;;;;;;;0.93;0.40;;;;;;;;;;5091890;28;20930;-75
2023/01/15 07:52:46;;;;;;;0.70;0.47;;;;;;;;;;5091883;28;20454;-75
2023/01/15 07:55:14;;;;;;;0.60;0.40;;;;;;;;;;5091899;28;20448;-75
2023/01/15 07:57:41;;;;;;;0.70;0.40;;;;;;;;;;5091670;28;20481;-75
2023/01/15 08:00:10;;;;;;;0.60;0.30;;;;;;;;;;5091648;28;20456;-75
2023/01/15 08:02:38;;;;;;;0.60;0.40;;;;;;;;;;5091621;28;20456;-74
2023/01/15 08:05:06;;;;;;;0.97;0.70;;;;;;;;;;5091378;28;20937;-70
2023/01/15 08:07:37;;;;;;;0.60;0.40;;;;;;;;;;5091486;28;20445;-75
2023/01/15 08:10:04;;;;;;;0.60;0.40;;;;;;;;;;5092246;28;20436;-75
2023/01/15 08:15:16;;;;;;;0.67;0.40;;;;;;;;;;5091299;28;20443;-75
2023/01/15 08:17:45;;;;;;;0.60;0.40;;;;;;;;;;5091604;28;20488;-75
2023/01/15 08:20:14;;;;;;;0.60;0.40;;;;;;;;;;5091033;28;20444;-74
2023/01/15 08:22:41;;;;;;;0.77;0.50;;;;;;;;;;5091443;28;20467;-75
2023/01/15 08:25:09;;;;;;;1.10;0.53;;;;;;;;;;5091215;28;20450;-74
2023/01/15 08:27:36;;;;;;;0.70;0.40;;;;;;;;;;5091615;28;20446;-74
2023/01/15 08:30:04;;;;;;;0.70;0.40;;;;;;;;;;5091509;28;20970;-75
2023/01/15 08:32:31;;;;;;;0.60;0.40;;;;;;;;;;5091425;28;20795;-75
2023/01/15 08:34:59;;;;;;;1.20;0.83;;;;;;;;;;5091631;28;20454;-75
2023/01/15 08:37:28;;;;;;;0.60;0.40;;;;;;;;;;5091095;28;20492;-74
2023/01/15 08:39:55;;;;;;;0.60;0.40;;;;;;;;;;5091472;28;20464;-74
2023/01/15 08:42:22;;;;;;;0.60;0.40;;;;;;;;;;5090377;28;20931;-75
2023/01/15 08:44:49;;;;;;;0.87;0.43;;;;;;;;;;5091712;28;20476;-75
2023/01/15 08:47:17;;;;;;;0.70;0.40;;;;;;;;;;5090693;28;20471;-74
2023/01/15 08:49:44;;;;;;;0.70;0.50;;;;;;;;;;5091410;28;20447;-75
2023/01/15 08:52:12;;;;;;;1.40;0.50;;;;;;;;;;5090120;28;20459;-75
2023/01/15 08:54:39;;;;;;;0.70;0.50;;;9.50;99.90;;;;;;5091080;28;20456;-75
2023/01/15 08:57:08;;;;;;;0.70;0.40;;;7.40;99.90;;;;;;5090412;28;20509;-75
2023/01/15 08:59:34;;;;;;;1.37;0.60;;;7.70;1.00;;;;;;5091581;28;20641;-75
2023/01/15 09:02:01;;;;;;;1.33;0.40;;;7.70;99.90;;;;;;5091356;28;20773;-75
2023/01/15 09:04:28;;;;;;;0.70;0.40;;;7.80;97.20;;;;;;5090633;28;20450;-75
2023/01/15 09:06:55;;;;;;;0.70;0.40;;;;;;;;;;5091144;28;20462;-75
2023/01/15 09:09:24;;;;;;;0.70;0.40;;;;;;;;;;5090883;28;20452;-76
2023/01/15 09:11:51;;;;;;;1.33;0.80;;;;;;;;;;5091232;28;20453;-76
2023/01/15 09:14:18;;;;;;;0.70;0.40;;;;;;;;;;5089833;28;20453;-79
2023/01/15 09:16:45;;;;;;;0.70;0.40;;;;;;;;;;5090873;28;20455;-77
2023/01/15 09:19:12;;;;;;;0.70;0.50;;;;;;;;;;5089332;28;20465;-74
2023/01/15 09:21:39;;;;;;;0.70;0.40;;;;;;;;;;5095486;28;20456;-73
2023/01/15 09:24:07;;;;;;;0.60;0.40;;;;;;;;;;5094264;28;20456;-74
2023/01/15 09:26:36;;;;;;;0.70;0.40;;;;;;;;;;5094641;28;20450;-74
2023/01/15 09:29:03;;;;;;;0.60;0.40;;;;;;;;;;5094679;28;20460;-74
2023/01/15 09:31:31;;;;;;;0.60;0.40;;;;;;;;;;5095017;28;20459;-74
2023/01/15 09:33:58;;;;;;;0.70;0.50;;;;;;;;;;5094993;28;20445;-75
2023/01/15 09:36:27;;;;;;;1.17;0.70;;;;;;;;;;5093751;28;21549;-74
2023/01/15 09:38:54;;;;;;;0.70;0.40;;;;;;;;;;5094399;28;20557;-74
2023/01/15 09:44:19;;;;;;;0.60;0.40;;;;;;;;;;5093949;28;20472;-74
2023/01/15 09:46:50;;;;;;;1.47;0.60;;;;;;;;;;5082394;28;20487;-73
2023/01/15 09:49:25;;;;;;;0.87;0.63;;;;;;;;;;5093412;28;20444;-74
2023/01/15 09:51:56;;;;;;;1.17;0.50;;;;;;;;;;5094832;28;20829;-74
2023/01/15 09:54:29;;;;;;;0.80;0.50;;;;;;;;;;5090680;28;20445;-75
2023/01/15 09:56:57;;;;;;;0.60;0.40;;;;;;;;;;5094514;28;20448;-74
2023/01/15 09:59:30;;;;;;;0.60;0.40;;;;;;;;;;5093178;28;20965;-74
2023/01/15 10:01:57;;;;;;;0.70;0.47;;;;;;;;;;5094496;28;20455;-74
2023/01/15 10:04:32;;;;;;;2.10;0.60;;;;;;;;;;5093716;28;20457;-74
2023/01/15 10:07:04;;;;;;;1.10;0.70;;;;;;;;;;5094215;28;20941;-76
2023/01/15 10:09:36;;;;;;;0.70;0.50;;;;;;;;;;5094127;28;20484;-73
2023/01/15 10:14:56;;;;;;;0.70;0.50;;;;;;;;;;5094139;28;20423;-74
2023/01/15 10:17:26;;;;;;;0.60;0.40;;;;;;;;;;5093091;28;20476;-74
2023/01/15 10:19:54;;;;;;;0.60;0.40;;;;;;;;;;5093442;28;20441;-74
2023/01/15 10:22:28;;;;;;;0.60;0.40;;;;;;;;;;5093173;28;20448;-74
2023/01/15 10:24:57;;;;;;;0.60;0.30;;;;;;;;;;5094091;28;20853;-74
2023/01/15 10:27:25;;;;;;;0.80;0.40;;;;;;;;;;5093135;28;20460;-74
2023/01/15 10:29:56;;;;;;;0.67;0.43;;;;;;;;;;5093409;28;20447;-74
2023/01/15 10:32:28;;;;;;;0.90;0.50;;;;;;;;;;5092387;28;20966;-73
2023/01/15 10:35:04;;;;;;;0.60;0.40;;;;;;;;;;5093883;28;20443;-74
2023/01/15 10:37:34;;;;;;;0.60;0.40;;;;;;;;;;5081547;28;20481;-74
2023/01/15 10:40:14;;;;;;;0.60;0.40;;;;;;;;;;5093050;28;20816;-74
2023/01/15 10:42:46;;;;;;;0.80;0.40;;;;;;;;;;5093429;28;20454;-74
2023/01/15 10:45:17;;;;;;;0.80;0.40;;;;;;;;;;5093087;28;20440;-74
2023/01/15 10:47:46;;;;;;;0.90;0.50;;;;;;;;;;5093246;28;20465;-74
2023/01/15 10:50:16;;;;;;;0.80;0.40;;;;;;;;;;5092923;28;20509;-74
2023/01/15 10:52:45;;;;;;;0.80;0.60;;;;;;;;;;5093828;28;20435;-74
2023/01/15 10:55:17;;;;;;;0.60;0.40;;;;;;;;;;5092595;28;20482;-72
2023/01/15 10:57:49;;;;;;;0.70;0.50;;;;;;;;;;5092978;28;20473;-73
2023/01/15 11:00:19;;;;;;;0.60;0.30;;;;;;;;;;5092940;28;20446;-72
2023/01/15 11:02:50;;;;;;;0.80;0.50;;;;;;;;;;5093156;28;20834;-73
2023/01/15 11:05:19;;;;;;;0.70;0.40;;;;;;;;;;5092530;28;20812;-74
2023/01/15 11:07:48;;;;;;;0.60;0.40;;;;;;;;;;5092801;28;20464;-74
2023/01/15 11:10:16;;;;;;;0.60;0.40;;;;;;;;;;5092413;28;20483;-73
2023/01/15 11:21:11;;;;;;;0.63;0.40;;;;;;;;;;5092332;28;20424;-72
2023/01/15 11:23:38;;;;;;;0.70;0.50;;;;;;;;;;5092837;28;20455;-72
2023/01/15 11:26:06;;;;;;;0.90;0.70;;;;;;;;;;5092916;28;20443;-72
2023/01/15 11:28:35;;;;;;;0.80;0.50;;;;;;;;;;5093150;28;20809;-72
2023/01/15 11:31:04;;;;;;;0.70;0.40;;;;;;;;;;5095826;28;20442;-72
2023/01/15 11:33:31;;;;;;;0.60;0.40;;;;;;;;;;5096606;28;20454;-72
2023/01/15 11:36:00;;;;;;;0.60;0.40;;;;;;;;;;5098826;28;20448;-72
2023/01/15 11:38:28;;;;;;;0.60;0.40;;;;;;;;;;5100013;28;20472;-72
2023/01/15 11:40:58;;;;;;;1.10;0.60;;;;;;;;;;5102341;28;20441;-71
2023/01/15 11:52:02;;;;;;;0.70;0.40;;;;;;;;;;5091703;28;20443;-71
2023/01/15 11:54:30;;;;;;;0.70;0.40;;;;;;;;;;5103519;28;20452;-71
2023/01/15 11:56:58;;;;;;;0.70;0.50;;;;;;;;;;5106121;28;20437;-71
2023/01/15 11:59:25;;;;;;;0.70;0.50;;;;;;;;;;5105814;28;20486;-71
2023/01/15 12:01:58;;;;;;;0.60;0.40;;;;;;;;;;5097095;28;20932;-71
2023/01/15 12:04:29;;;;;;;1.70;0.60;;;;;;;;;;5091987;28;20495;-72
2023/01/15 12:06:57;;;;;;;0.90;0.60;;;;;;;;;;5092600;28;20447;-71
2023/01/15 12:09:29;;;;;;;0.70;0.40;;;;;;;;;;5091674;28;20454;-71
2023/01/15 12:12:01;;;;;;;0.80;0.67;;;;;;;;;;5092371;28;20456;-71
2023/01/15 12:14:35;;;;;;;0.70;0.50;;;;;;;;;;5078987;28;20444;-71
2023/01/15 12:17:08;;;;;;;0.70;0.40;;;;;;;;;;5094814;28;20440;-71
2023/01/15 12:19:39;;;;;;;0.70;0.40;;;;;;;;;;5090293;28;20473;-68
2023/01/15 12:22:21;;;;;;;0.90;0.40;;;;;;;;;;5093986;28;20438;-71
2023/01/15 12:25:03;;;;;;;1.30;0.60;;;;;;;;;;5091966;28;20470;-71
2023/01/15 12:27:48;;;;;;;0.70;0.40;;;;;;;;;;5077913;28;20476;-71
2023/01/15 12:30:20;;;;;;;1.00;0.50;;;;;;;;;;5090886;28;20437;-72
2023/01/15 12:32:52;;;;;;;0.93;0.67;;;;;;;;;;5091791;28;20497;-71
2023/01/15 12:35:27;;;;;;;1.03;0.47;;;;;;;;;;5090647;28;20445;-71
2023/01/15 12:37:57;;;;;;;3.23;2.20;;;;;;;;;;5091098;28;20471;-71
2023/01/15 12:40:26;;;;;;;0.60;0.40;;;;;;;;;;5077570;28;20449;-72
2023/01/15 12:45:41;;;;;;;0.90;0.67;;;;;;;;;;5091379;28;20469;-72
2023/01/15 12:48:13;;;;;;;0.90;0.50;;;;;;;;;;5090415;28;20483;-72
2023/01/15 12:50:43;;;;;;;1.10;0.63;;;;;;;;;;5090792;28;20966;-72
2023/01/15 12:53:13;;;;;;;0.60;0.40;;;;;;;;;;5082495;28;20491;-72
2023/01/15 12:55:43;;;;;;;1.03;0.50;;;;;;;;;;5087838;28;20443;-71
2023/01/15 12:58:14;;;;;;;0.70;0.50;;;;;;;;;;5089065;28;20933;-72
2023/01/15 13:00:42;;;;;;;0.70;0.40;;;;;;;;;;5091382;28;20458;-70
2023/01/15 13:03:20;;;;;;;0.77;0.60;;;;;;;;;;5078784;28;20473;-70
2023/01/15 13:05:48;;;;;;;0.60;0.40;;;;;;;;;;5091278;28;20440;-71
2023/01/15 13:08:19;;;;;;;0.60;0.40;;;;;;;;;;5089435;28;20478;-73
2023/01/15 13:10:46;;;;;;;0.97;0.73;;;;;;;;;;5090973;28;20449;-77
2023/01/15 13:13:17;;;;;;;0.90;0.50;;;;;;;;;;5089822;28;20540;-73
2023/01/15 13:15:54;;;;;;;0.60;0.40;;;;;;;;;;5090687;28;20462;-71
2023/01/15 13:18:27;;;;;;;1.10;0.83;;;;;;;;;;5081769;28;20981;-71
2023/01/15 13:20:54;;;;;;;0.70;0.40;;;;;;;;;;5091032;28;20434;-74
2023/01/15 13:23:32;;;;;;;1.70;0.70;;;;;;;;;;5090626;28;20549;-75
2023/01/15 13:26:04;;;;;;;0.80;0.40;;;;;;;;;;5083822;28;20431;-76
2023/01/15 13:28:39;;;;;;;1.20;0.70;;;;;;;;;;5087384;28;20475;-76
2023/01/15 13:31:10;;;;;;;0.80;0.60;;;;;;;;;;5087056;28;20438;-76
2023/01/15 13:33:42;;;;;;;0.70;0.47;;;;;;;;;;5089474;28;20434;-76
2023/01/15 13:36:12;;;;;;;0.70;0.50;;;;;;;;;;5091181;28;20440;-75
2023/01/15 13:38:41;;;;;;;1.03;0.93;;;;;;;;;;5090528;28;20478;-76
2023/01/15 13:41:09;;;;;;;1.77;0.50;;;;;;;;;;5091031;28;20440;-76
2023/01/15 13:43:38;;;;;;;1.30;0.53;;;;;;;;;;5090208;28;20486;-76
2023/01/15 13:46:07;;;;;;;0.77;0.50;;;;;;;;;;5087319;28;20554;-76
2023/01/15 13:48:36;;;;;;;2.50;1.30;;;;;;;;;;5082875;28;20902;-76
2023/01/15 13:51:05;;;;;;;2.43;0.60;;;;;;;;;;5089132;28;20428;-78
2023/01/15 13:53:34;;;;;;;0.60;0.40;;;;;;;;;;5079669;28;20437;-77
2023/01/15 13:56:04;;;;;;;0.60;0.40;;;;;;;;;;5091710;28;20444;-79
2023/01/15 13:58:32;;;;;;;0.70;0.50;;;;;;;;;;5099030;28;20475;-76
2023/01/15 14:01:07;;;;;;;1.37;0.63;;;;;;;;;;5095972;28;20443;-76
2023/01/15 14:03:36;;;;;;;0.97;0.60;;;;;;;;;;5096238;28;20530;-75
2023/01/15 14:06:05;;;;;;;1.07;0.73;;;;;;;;;;5104428;28;20444;-76
2023/01/15 14:08:38;;;;;;;2.30;0.90;;;;;;;;;;5107742;28;20531;-75
2023/01/15 14:11:05;;;;;;;1.97;1.37;;;;;;;;;;5105439;28;20455;-71
2023/01/15 14:13:45;;;;;;;1.63;0.73;;;;;;;;;;5095231;28;20460;-71
2023/01/15 14:16:15;;;;;;;1.20;0.93;;;;;;;;;;5095750;28;20457;-72
2023/01/15 14:18:55;;;;;;;0.70;0.40;;;;;;;;;;5087621;28;20532;-71
2023/01/15 14:21:27;;;;;;;1.83;0.90;;;;;;;;;;5095156;28;20433;-72
2023/01/15 14:24:24;;;;;;;3.83;0.70;;;;;;;;;;5095090;28;20779;-73
2023/01/15 14:26:56;;;;;;;2.30;0.60;;;;;;;;;;5010303;28;20528;-72
2023/01/15 14:29:29;;;;;;;1.00;0.60;;;;;;;;;;5076000;28;20470;-72
2023/01/15 14:32:02;;;;;;;2.30;0.83;;;;;;;;;;5086908;28;20449;-72
2023/01/15 14:34:30;;;;;;;4.03;2.33;;;;;;;;;;5090842;28;20437;-72
2023/01/15 14:37:00;;;;;;;4.40;2.17;;;;;;;;;;5091352;28;20990;-72
2023/01/15 14:39:29;;;;;;;2.43;1.30;;;;;;;;;;5090483;28;20481;-72
2023/01/15 14:44:44;;;;;;;0.70;0.40;;;;;;;;;;5090897;28;20466;-72
2023/01/15 14:47:21;;;;;;;5.43;1.47;;;;;;;;;;5090939;28;20442;-74
2023/01/15 14:49:59;;;;;;;1.67;0.70;;;;;;;;;;5087652;28;20944;-71
2023/01/15 14:52:28;;;;;;;1.83;0.60;;;;;;;;;;5089736;28;20778;-72
2023/01/15 14:54:56;;;;;;;1.23;0.97;;;;;;;;;;5089144;28;20447;-72
2023/01/15 14:57:24;;;;;;;1.67;0.97;;;;;;;;;;5090154;28;20451;-73
2023/01/15 14:59:54;;;;;;;0.90;0.60;;;;;;;;;;5090808;28;20483;-73
2023/01/15 15:02:24;;;;;;;1.00;0.90;;;;;;;;;;5090149;28;20433;-73
2023/01/15 15:04:53;;;;;;;0.77;0.63;;;;;;;;;;5090724;28;20796;-73
2023/01/15 15:07:23;;;;;;;1.07;0.73;;;;;;;;;;5089695;28;20796;-73
2023/01/15 15:09:55;;;;;;;0.70;0.50;;;;;;;;;;5079137;28;20781;-73
2023/01/15 15:12:26;;;;;;;12.90;0.80;;;;;;;;;;5089694;28;20783;-72
2023/01/15 15:14:59;;;;;;;1.47;0.93;;;;;;;;;;5090697;28;20433;-72
2023/01/15 15:17:31;;;;;;;2.00;0.67;;;;;;;;;;5089389;28;20437;-72
2023/01/15 15:20:01;;;;;;;0.90;0.60;;;;;;;;;;5090262;28;20521;-72
2023/01/15 15:22:31;;;;;;;1.63;0.77;;;;;;;;;;5088212;28;20472;-72
2023/01/15 15:25:11;;;;;;;0.80;0.50;;;;;;;;;;5090111;28;20448;-72
2023/01/15 15:27:38;;;;;;;1.87;0.50;;;;;;;;;;5088960;28;20452;-72
2023/01/15 15:30:06;;;;;;;1.27;0.70;;;;;;;;;;5089462;28;20456;-72
2023/01/15 15:32:38;;;;;;;2.50;0.90;;;;;;;;;;5086934;28;20475;-72
2023/01/15 15:35:19;;;;;;;1.00;0.90;;;7.70;1.00;;;;;;5090045;28;20451;-72
2023/01/15 15:37:46;;;;;;;1.43;1.30;;;6.20;1.00;;;;;;5089401;28;20989;-73
2023/01/15 15:40:17;;;;;;;5.17;0.70;;;6.10;1.00;;;;;;5089004;28;20483;-72
2023/01/15 15:51:25;;;;;;;1.13;0.60;;;;;;;;;;5028797;28;20809;-73
2023/01/15 15:54:02;;;;;;;1.53;0.87;;;;;;;;;;5089025;28;20440;-73